Time;durP1;ratioP1;P1;durP2;ratioP2;P2;SDS_P1;SDS_P2;PMS_P1;PMS_P2;Temp;Humidity;BMP_temperature;BMP_pressure;BME280_temperature;BME280_humidity;BME280_pressure;Samples;Min_cycle;Max_cycle;Signal;HPM_P1;HPM_P2
2024/01/09 00:01:30;;;;;;;45.28;29.75;;;;;;;;;;5032809;28;20479;-88
2024/01/09 00:03:55;;;;;;;48.47;29.75;;;;;;;;;;5050327;28;20292;-89
2024/01/09 00:06:21;;;;;;;43.47;29.45;;;;;;;;;;5051485;28;20047;-89
2024/01/09 00:08:48;;;;;;;45.00;29.30;;;;;;;;;;5050521;28;20021;-89
2024/01/09 00:11:14;;;;;;;39.75;26.60;;;;;;;;;;5051676;28;20104;-89
2024/01/09 00:13:40;;;;;;;44.83;27.30;;;;;;;;;;5049659;28;20156;-89
2024/01/09 00:16:05;;;;;;;37.95;25.10;;;;;;;;;;5033441;28;20052;-89
2024/01/09 00:18:32;;;;;;;34.88;22.92;;;;;;;;;;5049319;28;20068;-89
2024/01/09 00:20:57;;;;;;;30.45;22.08;;;;;;;;;;5049499;28;20017;-89
2024/01/09 00:23:22;;;;;;;30.02;19.98;;;;;;;;;;5050238;28;20013;-89
2024/01/09 00:25:48;;;;;;;28.83;19.00;;;;;;;;;;5050066;28;20021;-89
2024/01/09 00:28:13;;;;;;;27.60;18.33;;;;;;;;;;5050398;28;20024;-89
2024/01/09 00:30:39;;;;;;;25.05;18.13;;;;;;;;;;5043171;28;20047;-90
2024/01/09 00:33:05;;;;;;;26.42;17.30;;;;;;;;;;5033922;28;20017;-90
2024/01/09 00:35:30;;;;;;;22.75;16.45;;;;;;;;;;5049899;28;20444;-89
2024/01/09 00:37:55;;;;;;;21.65;16.02;;;;;;;;;;5051150;28;20019;-89
2024/01/09 00:40:21;;;;;;;20.55;15.38;;;;;;;;;;5032078;28;20637;-89
2024/01/09 00:42:46;;;;;;;22.27;16.35;;;;;;;;;;5048847;28;20048;-89
2024/01/09 00:45:11;;;;;;;26.73;17.95;;;;;;;;;;5049470;28;20336;-89
2024/01/09 00:47:37;;;;;;;22.90;16.27;;;;;;;;;;5049570;28;20024;-89
2024/01/09 00:50:02;;;;;;;19.80;14.23;;;;;;;;;;5050639;28;20013;-89
2024/01/09 00:52:27;;;;;;;20.67;14.80;;;;;;;;;;5049172;28;20116;-89
2024/01/09 00:54:53;;;;;;;19.73;13.45;;;;;;;;;;5051394;28;20427;-89
2024/01/09 00:57:18;;;;;;;21.35;14.00;;;;;;;;;;5049303;28;20503;-88
2024/01/09 00:59:43;;;;;;;19.92;13.93;;;;;;;;;;5047716;28;20028;-88
2024/01/09 01:02:09;;;;;;;21.50;15.25;;;;;;;;;;5048595;28;20075;-88
2024/01/09 01:04:38;;;;;;;21.10;14.77;;;;;;;;;;5049775;28;20019;-88
2024/01/09 01:07:03;;;;;;;24.05;15.77;;;;;;;;;;5049214;28;20108;-89
2024/01/09 01:09:28;;;;;;;17.77;13.05;;;;;;;;;;5049622;28;20121;-89
2024/01/09 01:11:54;;;;;;;20.38;14.05;;;;;;;;;;5048934;28;20574;-88
2024/01/09 01:14:19;;;;;;;17.30;13.25;;;;;;;;;;5049598;28;20044;-89
2024/01/09 01:16:46;;;;;;;19.95;14.55;;;;;;;;;;5045982;28;20048;-89
2024/01/09 01:19:11;;;;;;;21.17;14.70;;;;;;;;;;5048492;28;20108;-88
2024/01/09 01:21:36;;;;;;;22.52;16.38;;;;;;;;;;5048361;28;20108;-89
2024/01/09 01:24:02;;;;;;;24.85;17.08;;;;;;;;;;5053709;28;20013;-88
2024/01/09 01:26:29;;;;;;;30.40;20.75;;;;;;;;;;5040662;28;20021;-89
2024/01/09 01:28:54;;;;;;;28.00;19.23;;;;;;;;;;5068293;28;20014;-89
2024/01/09 01:31:19;;;;;;;34.50;21.77;;;;;;;;;;5072890;28;20021;-90
2024/01/09 01:33:45;;;;;;;35.78;22.85;;;;;;;;;;5047721;28;20039;-89
2024/01/09 01:36:14;;;;;;;36.63;21.75;;;;;;;;;;5048216;28;20029;-89
2024/01/09 01:38:39;;;;;;;;;;;;;;;;;;5046411;28;20125;-88
2024/01/09 01:41:04;;;;;;;27.66;17.72;;;;;;;;;;5046421;28;19912;-89
2024/01/09 01:43:31;;;;;;;32.63;21.30;;;;;;;;;;5029511;28;20028;-89
2024/01/09 01:45:56;;;;;;;35.35;22.90;;;;;;;;;;5029496;28;20369;-89
2024/01/09 01:48:21;;;;;;;29.42;18.65;;;;;;;;;;5028610;28;20549;-89
2024/01/09 01:50:47;;;;;;;31.45;20.45;;;;;;;;;;5025466;28;20044;-89
2024/01/09 01:53:12;;;;;;;32.67;20.23;;;;;;;;;;5009203;28;20018;-89
2024/01/09 01:55:38;;;;;;;27.98;18.98;;;;;;;;;;5012269;28;20024;-89
2024/01/09 01:58:03;;;;;;;26.73;18.20;;;;;;;;;;5029204;28;20028;-88
2024/01/09 02:00:29;;;;;;;28.58;18.75;;;;;;;;;;5028849;28;20577;-89
2024/01/09 02:02:55;;;;;;;22.70;16.40;;;;;;;;;;5028295;28;20021;-89
2024/01/09 02:05:22;;;;;;;27.17;15.82;;;;;;;;;;5028783;28;20106;-89
2024/01/09 02:07:50;;;;;;;22.42;15.30;;;;;;;;;;5029099;28;20191;-89
2024/01/09 02:10:15;;;;;;;27.33;17.52;;;;;;;;;;5034840;28;20021;-89
2024/01/09 02:12:41;;;;;;;25.85;16.95;;;;;;;;;;5049628;28;20036;-88
2024/01/09 02:15:07;;;;;;;20.17;14.93;;;;;;;;;;5074050;28;20256;-88
2024/01/09 02:17:32;;;;;;;20.95;14.57;;;;;;;;;;5062549;28;20044;-88
2024/01/09 02:20:01;;;;;;;19.40;13.90;;;;;;;;;;5047830;28;20108;-88
2024/01/09 02:22:26;;;;;;;26.63;17.58;;;;;;;;;;5047453;28;20024;-88
2024/01/09 02:24:51;;;;;;;20.92;15.38;;;;;;;;;;5047022;28;20406;-88
2024/01/09 02:27:23;;;;;;;22.27;16.33;;;;;;;;;;5046901;28;20032;-88
2024/01/09 02:29:49;;;;;;;23.88;16.73;;;;;;;;;;5046830;28;20021;-88
2024/01/09 02:32:15;;;;;;;25.23;17.25;;;;;;;;;;5046878;28;20078;-86
2024/01/09 02:34:42;;;;;;;25.98;17.67;;;;;;;;;;5027094;28;20112;-88
2024/01/09 02:37:07;;;;;;;24.02;16.35;;;;;;;;;;5038459;28;20382;-87
2024/01/09 02:39:32;;;;;;;23.45;16.20;;;;;;;;;;5047054;28;20021;-87
2024/01/09 02:41:57;;;;;;;23.08;16.17;;;;;;;;;;5045478;28;20021;-88
2024/01/09 02:44:23;;;;;;;22.95;16.50;;;;;;;;;;5046204;28;20360;-87
2024/01/09 02:46:48;;;;;;;24.23;17.17;;;;;;;;;;5047232;28;20025;-88
2024/01/09 02:49:13;;;;;;;25.05;17.13;;;;;;;;;;5030139;28;20044;-88
2024/01/09 02:51:39;;;;;;;25.80;16.80;;;;;;;;;;5047435;28;20124;-87
2024/01/09 02:54:05;;;;;;;27.05;17.80;;;;;;;;;;5046781;28;20020;-87
2024/01/09 02:56:30;;;;;;;28.27;18.63;;;;;;;;;;5049539;28;20033;-88
2024/01/09 02:58:55;;;;;;;26.80;17.70;;;;;;;;;;5060933;28;20115;-88
2024/01/09 03:01:23;;;;;;;28.67;18.85;;;;;;;;;;5073389;28;20018;-87
2024/01/09 03:03:48;;;;;;;21.83;15.00;;;;;;;;;;5048642;28;20025;-87
2024/01/09 03:06:14;;;;;;;23.95;16.02;;;;;;;;;;5046649;28;20476;-87
2024/01/09 03:08:39;;;;;;;19.45;14.23;;;;;;;;;;5046508;28;20021;-87
2024/01/09 03:11:05;;;;;;;19.27;13.70;;;;;;;;;;5047864;28;20031;-87
2024/01/09 03:13:30;;;;;;;21.95;15.35;;;;;;;;;;5046128;28;20184;-88
2024/01/09 03:15:57;;;;;;;22.92;15.40;;;;;;;;;;5047530;28;20414;-88
2024/01/09 03:18:22;;;;;;;23.15;16.27;;;;;;;;;;5046151;28;20036;-88
2024/01/09 03:20:47;;;;;;;18.65;13.65;;;;;;;;;;5047595;28;20013;-87
2024/01/09 03:23:13;;;;;;;19.08;13.05;;;;;;;;;;5046633;28;20029;-88
2024/01/09 03:25:38;;;;;;;18.52;13.70;;;;;;;;;;5029426;28;20379;-88
2024/01/09 03:28:04;;;;;;;17.48;12.68;;;;;;;;;;5045905;28;20028;-87
2024/01/09 03:30:29;;;;;;;17.35;12.57;;;;;;;;;;5045150;28;20075;-88
2024/01/09 03:32:55;;;;;;;17.58;12.57;;;;;;;;;;5036920;28;20029;-87
2024/01/09 03:35:21;;;;;;;18.52;12.63;;;;;;;;;;5045036;28;20017;-88
2024/01/09 03:37:47;;;;;;;15.27;11.60;;;;;;;;;;5046959;28;20021;-87
2024/01/09 03:40:12;;;;;;;13.98;10.07;;;;;;;;;;5047689;28;20063;-87
2024/01/09 03:42:37;;;;;;;11.48;8.73;;;;;;;;;;5048604;28;20013;-87
2024/01/09 03:45:03;;;;;;;12.10;9.70;;;;;;;;;;5072798;28;20043;-87
2024/01/09 03:47:28;;;;;;;14.00;10.23;;;;;;;;;;5019682;28;20030;-87
2024/01/09 03:49:54;;;;;;;13.90;9.73;;;;;;;;;;4988276;28;20104;-87
2024/01/09 03:52:19;;;;;;;14.70;9.60;;;;;;;;;;5003039;28;20026;-87
2024/01/09 03:54:44;;;;;;;17.00;11.27;;;;;;;;;;4981592;28;20086;-87
2024/01/09 03:57:10;;;;;;;17.63;11.43;;;;;;;;;;4992072;28;20401;-87
2024/01/09 03:59:37;;;;;;;18.60;12.15;;;;;;;;;;4991156;28;20084;-88
2024/01/09 04:02:02;;;;;;;13.27;9.57;;;;;;;;;;4990907;28;20018;-84
2024/01/09 04:04:28;;;;;;;13.98;10.15;;;;;;;;;;5008396;28;20025;-87
2024/01/09 04:06:53;;;;;;;14.38;11.07;;;;;;;;;;4991477;28;20030;-87
2024/01/09 04:09:18;;;;;;;18.27;12.25;;;;;;;;;;4991961;28;20033;-86
2024/01/09 04:11:47;;;;;;;17.42;11.52;;;;;;;;;;4990746;28;20554;-85
2024/01/09 04:14:12;;;;;;;20.58;13.35;;;;;;;;;;4990087;28;20499;-87
2024/01/09 04:16:37;;;;;;;18.98;12.90;;;;;;;;;;4991141;28;20046;-87
2024/01/09 04:19:03;;;;;;;16.60;10.88;;;;;;;;;;5007606;28;20589;-88
2024/01/09 04:21:29;;;;;;;21.60;13.48;;;;;;;;;;5008323;28;20030;-87
2024/01/09 04:23:55;;;;;;;21.70;13.20;;;;;;;;;;5006193;28;20022;-87
2024/01/09 04:26:20;;;;;;;23.38;13.82;;;;;;;;;;5028650;28;20104;-87
2024/01/09 04:28:45;;;;;;;22.02;14.10;;;;;;;;;;5051764;28;20092;-87
2024/01/09 04:31:11;;;;;;;14.18;10.80;;;;;;;;;;5073202;28;20081;-86
2024/01/09 04:33:36;;;;;;;14.68;10.98;;;;;;;;;;5028598;28;20432;-87
2024/01/09 04:36:01;;;;;;;14.95;11.18;;;;;;;;;;5040196;28;20275;-86
2024/01/09 04:38:27;;;;;;;14.52;10.20;;;;;;;;;;5048319;28;20387;-85
2024/01/09 04:40:52;;;;;;;14.38;10.70;;;;;;;;;;5048529;28;20356;-87
2024/01/09 04:43:18;;;;;;;12.20;8.68;;;;;;;;;;5050238;28;20049;-86
2024/01/09 04:45:43;;;;;;;7.63;6.80;;;;;;;;;;5049037;28;20017;-84
2024/01/09 04:48:08;;;;;;;6.60;5.55;;;;;;;;;;5048066;28;20024;-85
2024/01/09 04:50:33;;;;;;;11.77;8.93;;;;;;;;;;5047896;28;20028;-87
2024/01/09 04:52:59;;;;;;;12.60;8.68;;;;;;;;;;5048913;28;20031;-85
2024/01/09 04:55:24;;;;;;;10.32;8.05;;;;;;;;;;5051012;28;20082;-85
2024/01/09 04:57:49;;;;;;;11.05;7.53;;;;;;;;;;5049968;28;20024;-87
2024/01/09 05:00:15;;;;;;;11.00;8.52;;;;;;;;;;5049464;28;20024;-85
2024/01/09 05:02:40;;;;;;;12.05;8.38;;;;;;;;;;5050552;28;20028;-86
2024/01/09 05:05:06;;;;;;;8.20;6.15;;;;;;;;;;5048927;28;20063;-83
2024/01/09 05:07:32;;;;;;;7.20;6.40;;;;;;;;;;5051676;28;20024;-83
2024/01/09 05:09:58;;;;;;;12.10;8.85;;;;;;;;;;5051134;28;20475;-85
2024/01/09 05:12:23;;;;;;;13.70;9.30;;;;;;;;;;5050512;28;20043;-84
2024/01/09 05:14:48;;;;;;;8.77;6.88;;;;;;;;;;5049575;28;20071;-85
2024/01/09 05:17:14;;;;;;;10.55;8.85;;;;;;;;;;5051400;28;20048;-87
2024/01/09 05:19:39;;;;;;;14.52;10.45;;;;;;;;;;5053373;28;20025;-86
2024/01/09 05:22:04;;;;;;;11.38;7.53;;;;;;;;;;5054800;28;20029;-85
2024/01/09 05:24:31;;;;;;;12.88;8.75;;;;;;;;;;5053818;28;20024;-86
2024/01/09 05:26:56;;;;;;;16.20;10.45;;;;;;;;;;5053697;28;20017;-85
2024/01/09 05:29:21;;;;;;;31.90;17.42;;;;;;;;;;5052770;28;20031;-84
2024/01/09 05:31:47;;;;;;;18.48;10.40;;;;;;;;;;5051573;28;20111;-86
2024/01/09 05:34:12;;;;;;;25.35;15.55;;;;;;;;;;5053344;28;20111;-85
2024/01/09 05:36:38;;;;;;;42.83;20.63;;;;;;;;;;5056287;28;20104;-85
2024/01/09 05:39:03;;;;;;;33.67;17.27;;;;;;;;;;5054763;28;20021;-87
2024/01/09 05:41:28;;;;;;;18.05;12.73;;;;;;;;;;5055606;28;20044;-86
2024/01/09 05:43:54;;;;;;;11.93;8.03;;;;;;;;;;5051364;28;20036;-85
2024/01/09 05:46:19;;;;;;;15.95;10.65;;;;;;;;;;5049394;28;20036;-86
2024/01/09 05:48:44;;;;;;;21.38;13.93;;;;;;;;;;5050233;28;20047;-84
2024/01/09 05:51:10;;;;;;;18.20;10.50;;;;;;;;;;5051599;28;20391;-86
2024/01/09 05:53:36;;;;;;;16.98;12.13;;;;;;;;;;5050155;28;20016;-86
2024/01/09 05:56:01;;;;;;;15.68;10.40;;;;;;;;;;5050093;28;20028;-85
2024/01/09 05:58:27;;;;;;;11.68;8.75;;;;;;;;;;5049251;28;20021;-85
2024/01/09 06:00:52;;;;;;;11.20;7.55;;;;;;;;;;5050677;28;20108;-85
2024/01/09 06:03:17;;;;;;;28.05;15.43;;;;;;;;;;5051630;28;20386;-85
2024/01/09 06:05:43;;;;;;;34.90;20.60;;;;;;;;;;5051577;28;20471;-86
2024/01/09 06:08:08;;;;;;;14.68;10.05;;;;;;;;;;5050150;28;20031;-86
2024/01/09 06:10:33;;;;;;;24.30;15.40;;;;;;;;;;5051691;28;20021;-85
2024/01/09 06:12:58;;;;;;;19.33;12.27;;;;;;;;;;5051822;28;20025;-87
2024/01/09 06:15:24;;;;;;;15.65;9.73;;;;;;;;;;5051307;28;20093;-86
2024/01/09 06:17:49;;;;;;;12.33;8.70;;;;;;;;;;5049741;28;20128;-87
2024/01/09 06:20:15;;;;;;;10.03;8.33;;;;;;;;;;5050216;28;20016;-86
2024/01/09 06:22:41;;;;;;;23.30;13.97;;;;;;;;;;5050593;28;20109;-85
2024/01/09 06:25:07;;;;;;;20.07;12.63;;;;;;;;;;5049099;28;20494;-86
2024/01/09 06:27:32;;;;;;;22.27;13.97;;;;;;;;;;5051317;28;20024;-87
2024/01/09 06:29:57;;;;;;;16.70;11.00;;;;;;;;;;5050048;28;20025;-86
2024/01/09 06:32:23;;;;;;;22.50;14.20;;;;;;;;;;5049739;28;20483;-86
2024/01/09 06:34:48;;;;;;;17.07;9.73;;;;;;;;;;5050222;28;20428;-86
2024/01/09 06:37:13;;;;;;;28.10;15.60;;;;;;;;;;5052340;28;20049;-85
2024/01/09 06:39:38;;;;;;;23.50;15.33;;;;;;;;;;5041483;28;20022;-88
2024/01/09 06:42:04;;;;;;;19.53;11.83;;;;;;;;;;5034654;28;20028;-87
2024/01/09 06:44:29;;;;;;;21.03;12.53;;;;;;;;;;5052585;28;20025;-87
2024/01/09 06:46:55;;;;;;;20.60;12.57;;;;;;;;;;5051714;28;20031;-86
2024/01/09 06:49:20;;;;;;;24.83;16.10;;;;;;;;;;5050480;28;20029;-88
2024/01/09 06:51:45;;;;;;;21.67;14.67;;;;;;;;;;5053879;28;20414;-87
2024/01/09 06:54:11;;;;;;;25.03;15.43;;;;;;;;;;5052843;28;20021;-88
2024/01/09 06:56:36;;;;;;;24.70;15.20;;;;;;;;;;5048327;28;20021;-87
2024/01/09 06:59:02;;;;;;;17.87;9.23;;;;;;;;;;5048037;28;20343;-86
2024/01/09 07:01:27;;;;;;;23.43;14.03;;;;;;;;;;5046750;28;20024;-87
2024/01/09 07:03:52;;;;;;;20.97;13.77;;;;;;;;;;5046724;28;20024;-86
2024/01/09 07:06:18;;;;;;;28.80;17.10;;;;;;;;;;5046789;28;20532;-87
2024/01/09 07:08:43;;;;;;;48.87;24.93;;;;;;;;;;5046342;28;20036;-87
2024/01/09 07:11:08;;;;;;;23.27;14.17;;;;;;;;;;5049510;28;20063;-86
2024/01/09 07:13:34;;;;;;;39.40;21.63;;;;;;;;;;5042049;28;20029;-86
2024/01/09 07:16:00;;;;;;;23.17;13.57;;;;;;;;;;5046226;28;20352;-86
2024/01/09 07:18:27;;;;;;;31.03;17.67;;;;;;;;;;5029656;28;20035;-86
2024/01/09 07:20:52;;;;;;;26.83;15.00;;;;;;;;;;5048563;28;20025;-86
2024/01/09 07:23:18;;;;;;;27.73;15.23;;;;;;;;;;5046663;28;20013;-86
2024/01/09 07:25:43;;;;;;;31.23;17.17;;;;;;;;;;5040042;28;20025;-86
2024/01/09 07:28:08;;;;;;;26.93;15.87;;;;;;;;;;5047607;28;20037;-85
2024/01/09 07:30:33;;;;;;;28.83;16.10;;;;;;;;;;5049042;28;20104;-87
2024/01/09 07:32:59;;;;;;;28.83;15.93;;;;;;;;;;5051377;28;20056;-86
2024/01/09 07:35:24;;;;;;;32.97;18.37;;;;;;;;;;5050706;28;20536;-86
2024/01/09 07:37:49;;;;;;;39.43;20.50;;;;;;;;;;5048688;28;20027;-86
2024/01/09 07:40:15;;;;;;;34.80;19.73;;;;;;;;;;5048860;28;20035;-87
2024/01/09 07:42:41;;;;;;;43.07;21.70;;;;;;;;;;5047676;28;20051;-86
2024/01/09 07:45:11;;;;;;;47.73;23.93;;;;;;;;;;5047658;28;20017;-86
2024/01/09 07:47:38;;;;;;;39.73;23.03;;;;;;;;;;5048797;28;20150;-85
2024/01/09 07:50:03;;;;;;;58.27;34.20;;;;;;;;;;5049287;28;20046;-86
2024/01/09 07:52:28;;;;;;;45.43;25.80;;;;;;;;;;5047639;28;20111;-85
2024/01/09 07:54:54;;;;;;;41.93;24.33;;;;;;;;;;5047365;28;20013;-86
2024/01/09 07:57:19;;;;;;;46.70;25.97;;;;;;;;;;5048867;28;20029;-86
2024/01/09 07:59:45;;;;;;;38.53;19.57;;;;;;;;;;5049416;28;20319;-85
2024/01/09 08:02:11;;;;;;;31.10;16.87;;;;;;;;;;5031366;28;20702;-86
2024/01/09 08:04:39;;;;;;;34.23;20.40;;;;;;;;;;5047979;28;20482;-86
2024/01/09 08:07:04;;;;;;;25.17;14.00;;;;;;;;;;5049678;28;20024;-86
2024/01/09 08:09:29;;;;;;;28.30;15.73;;;;;;;;;;5049066;28;20025;-86
2024/01/09 08:11:55;;;;;;;28.83;17.33;;;;;;;;;;5047859;28;20479;-86
2024/01/09 08:14:20;;;;;;;34.83;18.87;;;;;;;;;;5049190;28;20048;-87
2024/01/09 08:16:45;;;;;;;22.00;10.77;;;;;;;;;;5050890;28;20045;-86
2024/01/09 08:19:11;;;;;;;21.63;11.63;;;;;;;;;;5048858;28;20446;-85
2024/01/09 08:21:36;;;;;;;21.07;12.37;;;;;;;;;;5048078;28;20368;-86
2024/01/09 08:24:02;;;;;;;31.40;16.87;;;;;;;;;;5047179;28;20055;-85
2024/01/09 08:26:28;;;;;;;19.40;12.80;;;;;;;;;;5048460;28;20053;-86
2024/01/09 08:28:53;;;;;;;27.50;15.13;;;;;;;;;;5044802;28;20483;-86
2024/01/09 08:31:19;;;;;;;21.10;11.93;;;;;;;;;;5049269;28;20017;-85
2024/01/09 08:33:44;;;;;;;23.60;12.43;;;;;;;;;;5044537;28;20438;-86
2024/01/09 08:36:09;;;;;;;21.47;12.90;;;;;;;;;;5047736;28;20024;-84
2024/01/09 08:38:35;;;;;;;21.40;13.27;;;;;;;;;;5047696;28;20028;-85
2024/01/09 08:41:02;;;;;;;27.57;14.63;;;;;;;;;;5047526;28;20390;-85
2024/01/09 08:43:27;;;;;;;31.30;17.17;;;;;;;;;;5047570;28;20017;-85
2024/01/09 08:45:53;;;;;;;29.10;13.93;;;;;;;;;;5048988;28;20100;-86
2024/01/09 08:48:18;;;;;;;22.57;13.90;;;;;;;;;;5046724;28;20539;-86
2024/01/09 08:50:43;;;;;;;26.97;16.33;;;;;;;;;;5047094;28;20036;-86
2024/01/09 08:53:09;;;;;;;30.87;16.27;;;;;;;;;;5052814;28;20061;-85
2024/01/09 08:55:35;;;;;;;30.43;16.07;;;;;;;;;;5047763;28;20364;-86
2024/01/09 08:58:00;;;;;;;29.47;16.63;;;;;;;;;;5049773;28;20020;-86
2024/01/09 09:00:25;;;;;;;27.93;17.83;;;;;;;;;;5048848;28;20054;-86
2024/01/09 09:02:51;;;;;;;24.70;13.93;;;;;;;;;;5034846;28;20083;-86
2024/01/09 09:05:16;;;;;;;30.90;15.93;;;;;;;;;;5048827;28;20021;-87
2024/01/09 09:07:42;;;;;;;29.20;17.33;;;;;;;;;;5050806;28;20063;-85
2024/01/09 09:10:07;;;;;;;26.40;15.95;;;;;;;;;;5049221;28;20414;-86
2024/01/09 09:12:33;;;;;;;20.88;12.75;;;;;;;;;;5048975;28;20025;-85
2024/01/09 09:14:58;;;;;;;25.15;14.43;;;;;;;;;;5047490;28;20083;-85
2024/01/09 09:17:23;;;;;;;25.20;15.63;;;;;;;;;;5047044;28;20091;-85
2024/01/09 09:19:49;;;;;;;29.23;16.87;;;;;;;;;;5047296;28;20064;-85
2024/01/09 09:22:14;;;;;;;22.38;13.48;;;;;;;;;;5046831;28;20276;-85
2024/01/09 09:24:42;;;;;;;26.23;14.43;;;;;;;;;;5047292;28;20479;-86
2024/01/09 09:27:07;;;;;;;17.08;11.68;;;;;;;;;;5046781;28;20021;-87
2024/01/09 09:29:33;;;;;;;25.05;15.30;;;;;;;;;;5039767;28;20040;-85
2024/01/09 09:31:58;;;;;;;31.45;18.75;;;;;;;;;;5037939;28;20029;-85
2024/01/09 09:34:25;;;;;;;26.30;15.02;;;;;;;;;;5032081;28;20112;-86
2024/01/09 09:36:52;;;;;;;21.63;12.60;;;;;;;;;;5046255;28;20529;-85
2024/01/09 09:39:17;;;;;;;26.33;14.85;;;;;;;;;;5046479;28;20547;-86
2024/01/09 09:41:46;;;;;;;17.73;10.93;;;;;;;;;;5047806;28;20024;-86
2024/01/09 09:44:17;;;;;;;29.08;17.30;;;;;;;;;;5045684;28;20488;-85
2024/01/09 09:46:44;;;;;;;22.87;13.00;;;;;;;;;;5042804;28;20056;-86
2024/01/09 09:49:10;;;;;;;20.88;11.50;;;;;;;;;;5046311;28;20120;-86
2024/01/09 09:51:36;;;;;;;21.17;12.83;;;;;;;;;;5045624;28;20039;-86
2024/01/09 09:54:01;;;;;;;22.63;14.75;;;;;;;;;;5047400;28;20204;-87
2024/01/09 09:56:27;;;;;;;19.27;11.40;;;;;;;;;;5047346;28;20094;-86
2024/01/09 09:58:52;;;;;;;27.67;16.20;;;;;;;;;;5047018;28;20025;-84
2024/01/09 10:01:18;;;;;;;24.15;14.95;;;;;;;;;;5048939;28;20027;-82
2024/01/09 10:03:56;;;;;;;21.93;12.73;;;;;;;;;;5049742;28;20083;-83
2024/01/09 10:06:22;;;;;;;16.27;9.50;;;;;;;;;;5050245;28;20031;-84
2024/01/09 10:08:51;;;;;;;28.77;17.42;;;;;;;;;;5045512;28;20145;-84
2024/01/09 10:11:16;;;;;;;15.38;9.77;;;;;;;;;;5031723;28;20386;-86
2024/01/09 10:13:42;;;;;;;16.92;10.70;;;;;;;;;;5048297;28;20033;-86
2024/01/09 10:16:08;;;;;;;23.73;13.07;;;;;;;;;;5048278;28;20598;-86
2024/01/09 10:18:34;;;;;;;17.65;10.18;;;;;;;;;;5045505;28;20029;-86
2024/01/09 10:21:01;;;;;;;16.90;10.77;;;;;;;;;;5044256;28;20418;-84
2024/01/09 10:23:27;;;;;;;18.75;11.13;;;;;;;;;;5048163;28;20035;-83
2024/01/09 10:25:53;;;;;;;19.57;12.83;;;;;;;;;;5043175;28;20025;-84
2024/01/09 10:28:18;;;;;;;25.08;15.68;;;;;;;;;;5046054;28;20426;-81
2024/01/09 10:30:43;;;;;;;21.85;13.82;;;;;;;;;;5045792;28;20072;-84
2024/01/09 10:33:09;;;;;;;22.37;14.47;;;;;;;;;;5045760;28;20467;-83
2024/01/09 10:35:34;;;;;;;18.30;11.30;;;;;;;;;;5045569;28;20071;-83
2024/01/09 10:38:00;;;;;;;13.47;9.60;;;;;;;;;;5043557;28;20033;-82
2024/01/09 10:40:26;;;;;;;20.57;12.83;;;;;;;;;;5045681;28;20036;-83
2024/01/09 10:42:51;;;;;;;17.23;9.83;;;;;;;;;;5044992;28;20048;-82
2024/01/09 10:45:19;;;;;;;27.13;14.23;;;;;;;;;;5045493;28;20382;-83
2024/01/09 10:47:45;;;;;;;22.80;13.40;;;;;;;;;;5045610;28;20115;-85
2024/01/09 10:50:10;;;;;;;21.17;12.37;;;;;;;;;;5029231;28;20120;-83
2024/01/09 10:52:35;;;;;;;21.53;12.43;;;;;;;;;;5046382;28;20491;-83
2024/01/09 10:55:03;;;;;;;21.13;13.83;;;;;;;;;;5047198;28;20029;-84
2024/01/09 10:57:29;;;;;;;24.90;15.07;;;;;;;;;;5044017;28;20052;-84
2024/01/09 10:59:56;;;;;;;26.07;15.37;;;;;;;;;;5036425;28;20017;-83
2024/01/09 11:02:22;;;;;;;28.43;16.13;;;;;;;;;;5052434;28;20192;-83
2024/01/09 11:04:47;;;;;;;25.00;14.17;;;;;;;;;;5053377;28;20154;-81
2024/01/09 11:07:14;;;;;;;19.80;11.53;;;;;;;;;;5053465;28;20028;-81
2024/01/09 11:09:41;;;;;;;19.80;12.00;;;;;;;;;;5055969;28;20036;-83
2024/01/09 11:12:07;;;;;;;20.03;11.43;;;;;;;;;;5055648;28;20029;-84
2024/01/09 11:14:34;;;;;;;26.23;15.50;;;;;;;;;;5057464;28;20028;-84
2024/01/09 11:16:59;;;;;;;27.90;16.30;;;;;;;;;;5050535;28;20215;-83
2024/01/09 11:19:25;;;;;;;36.10;19.97;;;;;;;;;;5054331;28;20076;-82
2024/01/09 11:21:50;;;;;;;15.17;9.50;;;;;;;;;;5052351;28;20024;-85
2024/01/09 11:24:23;;;;;;;26.93;15.77;;;;;;;;;;5052604;28;20029;-83
2024/01/09 11:27:08;;;;;;;16.73;10.03;;;;;;;;;;5034171;28;20071;-83
2024/01/09 11:29:48;;;;;;;27.15;16.33;;;;;;;;;;5050014;28;20068;-83
2024/01/09 11:32:15;;;;;;;32.00;18.63;;;;;;;;;;5047390;28;20390;-84
2024/01/09 11:34:42;;;;;;;23.10;14.07;;;;;;;;;;5039872;28;20112;-83
2024/01/09 11:37:20;;;;;;;18.53;11.43;;;;;;;;;;5044914;28;20040;-81
2024/01/09 11:39:45;;;;;;;27.93;16.50;;;;;;;;;;5032117;28;20024;-83
2024/01/09 11:42:15;;;;;;;26.53;17.10;;;;;;;;;;5027275;28;20035;-84
2024/01/09 11:44:40;;;;;;;26.67;14.90;;;;;;;;;;5025615;28;20029;-83
2024/01/09 11:47:05;;;;;;;18.27;9.20;;;;;;;;;;5041901;28;20506;-83
2024/01/09 11:49:31;;;;;;;22.30;12.43;;;;;;;;;;5041276;28;20110;-83
2024/01/09 11:51:56;;;;;;;19.77;11.53;;;;;;;;;;5044385;28;20210;-83
2024/01/09 11:54:22;;;;;;;19.33;12.43;;;;;;;;;;5044106;28;20098;-84
2024/01/09 11:56:50;;;;;;;27.57;16.37;;;;;;;;;;5027658;28;20041;-82
2024/01/09 11:59:20;;;;;;;32.23;17.57;;;;;;;;;;5044420;28;20052;-84
2024/01/09 12:01:46;;;;;;;19.30;12.60;;;;;;;;;;5045091;28;20128;-83
2024/01/09 12:04:13;;;;;;;18.73;10.80;;;;;;;;;;5048382;28;20017;-81
2024/01/09 12:06:38;;;;;;;18.70;11.50;;;;;;;;;;5030973;28;20025;-83
2024/01/09 12:09:04;;;;;;;15.02;8.77;;;;;;;;;;5028756;28;20029;-83
2024/01/09 12:11:29;;;;;;;22.40;14.47;;;;;;;;;;5029729;28;20196;-83
2024/01/09 12:14:02;;;;;;;14.67;10.30;;;;;;;;;;5035323;28;20516;-83
2024/01/09 12:16:29;;;;;;;16.97;11.00;;;;;;;;;;5045782;28;20076;-83
2024/01/09 12:18:56;;;;;;;18.23;12.37;;;;;;;;;;5045272;28;20185;-84
2024/01/09 12:21:25;;;;;;;19.13;11.33;;;;;;;;;;5047342;28;20033;-83
2024/01/09 12:23:51;;;;;;;16.90;10.93;;;;;;;;;;5047313;28;20382;-83
2024/01/09 12:26:18;;;;;;;20.17;13.03;;;;;;;;;;5047394;28;20071;-83
2024/01/09 12:28:44;;;;;;;14.40;9.00;;;;;;;;;;5048709;28;20024;-84
2024/01/09 12:31:11;;;;;;;14.47;9.00;;;;;;;;;;5028359;28;20399;-84
2024/01/09 12:33:37;;;;;;;11.60;7.03;;;;;;;;;;5045387;28;20025;-84
2024/01/09 12:36:03;;;;;;;16.73;10.33;;;;;;;;;;5047298;28;20025;-85
2024/01/09 12:38:28;;;;;;;13.10;9.07;;;;;;;;;;5036954;28;20163;-84
2024/01/09 12:40:58;;;;;;;19.57;13.03;;;;;;;;;;5043300;28;20108;-84
2024/01/09 12:43:23;;;;;;;;;;;;;;;;;;5045084;28;20565;-84
2024/01/09 12:45:49;;;;;;;19.60;11.07;;;;;;;;;;5042283;28;19905;-84
2024/01/09 12:48:15;;;;;;;18.00;11.07;;;;;;;;;;5030967;28;20024;-84
2024/01/09 12:50:40;;;;;;;19.63;12.33;;;;;;;;;;5049092;28;20016;-84
2024/01/09 12:53:06;;;;;;;16.00;11.03;;;;;;;;;;5050266;28;20021;-83
2024/01/09 12:55:32;;;;;;;19.03;11.50;;;;;;;;;;5049060;28;20033;-83
2024/01/09 12:57:58;;;;;;;19.37;11.17;;;;;;;;;;5047552;28;20104;-84
2024/01/09 13:00:24;;;;;;;21.33;14.30;;;;;;;;;;5047087;28;20028;-83
2024/01/09 13:02:49;;;;;;;17.10;12.10;;;;;;;;;;5030084;28;20009;-83
2024/01/09 13:05:15;;;;;;;15.00;11.10;;;;;;;;;;5043570;28;20088;-82
2024/01/09 13:07:40;;;;;;;13.07;9.67;;;;;;;;;;5047582;28;20028;-82
2024/01/09 13:10:05;;;;;;;11.60;8.27;;;;;;;;;;5047278;28;20029;-82
2024/01/09 13:12:31;;;;;;;13.57;9.00;;;;;;;;;;5056807;28;20031;-82
2024/01/09 13:14:56;;;;;;;15.50;10.90;;;;;;;;;;5044601;28;20024;-82
2024/01/09 13:17:22;;;;;;;13.37;9.63;;;;;;;;;;5043730;28;20411;-82
2024/01/09 13:19:50;;;;;;;14.83;9.83;;;;;;;;;;5044000;28;20025;-82
2024/01/09 13:22:15;;;;;;;25.97;15.60;;;;;;;;;;5044974;28;20320;-82
2024/01/09 13:24:40;;;;;;;14.47;8.63;;;;;;;;;;5046464;28;20419;-82
2024/01/09 13:27:06;;;;;;;16.20;10.63;;;;;;;;;;5044235;28;20048;-81
2024/01/09 13:29:31;;;;;;;13.50;9.23;;;;;;;;;;5044542;28;20025;-83
2024/01/09 13:31:57;;;;;;;13.40;8.37;;;;;;;;;;5044691;28;20060;-82
2024/01/09 13:34:23;;;;;;;19.80;11.83;;;;;;;;;;5044340;28;20055;-81
2024/01/09 13:36:49;;;;;;;15.93;11.30;;;;;;;;;;5045030;28;20013;-82
2024/01/09 13:39:14;;;;;;;11.90;8.00;;;;;;;;;;5044154;28;20078;-82
2024/01/09 13:41:42;;;;;;;8.90;7.60;;;;;;;;;;5044051;28;20114;-81
2024/01/09 13:44:08;;;;;;;15.25;8.85;;;;;;;;;;5045953;28;20024;-81
2024/01/09 13:46:33;;;;;;;12.07;7.57;;;;;;;;;;5043782;28;20407;-81
2024/01/09 13:48:59;;;;;;;17.48;11.23;;;;;;;;;;5044745;28;20510;-81
2024/01/09 13:51:24;;;;;;;13.03;9.03;;;;;;;;;;5044346;28;20104;-82
2024/01/09 13:53:52;;;;;;;12.07;8.33;;;;;;;;;;5046010;28;20413;-82
2024/01/09 13:56:18;;;;;;;15.07;8.83;;;;;;;;;;5043794;28;20021;-82
2024/01/09 13:58:43;;;;;;;11.87;8.53;;;;;;;;;;5043070;28;20078;-82
2024/01/09 14:01:09;;;;;;;8.77;6.67;;;;;;;;;;5042678;28;20028;-82
2024/01/09 14:03:34;;;;;;;11.50;7.73;;;;;;;;;;5045203;28;20036;-82
2024/01/09 14:05:59;;;;;;;10.00;7.53;;;;;;;;;;5041053;28;20029;-82
2024/01/09 14:08:25;;;;;;;11.77;8.73;;;;;;;;;;5044187;28;20017;-82
2024/01/09 14:10:50;;;;;;;8.00;6.30;;;;;;;;;;5042911;28;20039;-82
2024/01/09 14:13:16;;;;;;;9.23;7.50;;;;;;;;;;5046929;28;20032;-82